createdAt,value
2018-11-07T00:01:06.142Z,80.40
2018-11-07T00:03:09.664Z,80.60
2018-11-07T00:05:14.035Z,80.40
2018-11-07T00:07:17.677Z,80.70
2018-11-07T00:09:21.264Z,80.90
2018-11-07T00:11:24.832Z,81.00
2018-11-07T00:13:28.400Z,80.80
2018-11-07T00:15:32.173Z,80.90
2018-11-07T00:17:35.795Z,80.70
2018-11-07T00:19:39.376Z,80.50
2018-11-07T00:21:43.011Z,81.10
2018-11-07T00:23:46.755Z,81.70
2018-11-07T00:25:50.288Z,82.10
2018-11-07T00:27:53.967Z,81.80
2018-11-07T00:29:57.535Z,81.60
2018-11-07T00:32:01.164Z,81.50
2018-11-07T00:34:04.889Z,80.90
2018-11-07T00:36:08.640Z,80.60
2018-11-07T00:38:12.143Z,80.50
2018-11-07T00:40:15.650Z,81.10
2018-11-07T00:42:19.195Z,80.80
2018-11-07T00:44:22.723Z,81.50
2018-11-07T00:46:26.316Z,81.40
2018-11-07T00:48:29.885Z,81.10
2018-11-07T00:50:33.441Z,80.50
2018-11-07T00:52:37.042Z,80.50
2018-11-07T00:54:40.564Z,80.50
2018-11-07T00:56:44.111Z,80.30
2018-11-07T00:58:47.681Z,80.00
2018-11-07T01:00:51.335Z,79.80
2018-11-07T01:02:54.946Z,79.40
2018-11-07T01:04:58.445Z,79.20
2018-11-07T01:07:02.082Z,80.20
2018-11-07T01:09:10.434Z,79.90
2018-11-07T01:11:13.931Z,79.50
2018-11-07T01:13:17.491Z,79.50
2018-11-07T01:15:21.192Z,79.30
2018-11-07T01:17:24.782Z,78.90
2018-11-07T01:19:28.313Z,78.90
2018-11-07T01:21:31.823Z,79.00
2018-11-07T01:23:35.651Z,78.90
2018-11-07T01:25:39.342Z,79.00
2018-11-07T01:27:42.895Z,78.50
2018-11-07T01:29:46.492Z,78.40
2018-11-07T01:31:50.103Z,79.00
2018-11-07T01:33:53.665Z,81.20
2018-11-07T01:35:57.195Z,81.00
2018-11-07T01:38:00.838Z,80.50
2018-11-07T01:40:06.307Z,80.00
2018-11-07T01:42:09.850Z,79.70
2018-11-07T01:44:13.330Z,79.60
2018-11-07T01:46:16.870Z,80.30
2018-11-07T01:48:20.465Z,80.70
2018-11-07T01:50:23.991Z,80.20
2018-11-07T01:52:27.527Z,79.50
2018-11-07T01:54:31.067Z,79.50
2018-11-07T01:56:34.562Z,80.00
2018-11-07T01:58:38.440Z,79.50
2018-11-07T02:00:41.983Z,79.20
2018-11-07T02:02:45.607Z,79.20
2018-11-07T02:04:49.312Z,78.90
2018-11-07T02:06:53.091Z,78.60
2018-11-07T02:08:56.598Z,78.80
2018-11-07T02:11:01.084Z,78.70
2018-11-07T02:13:05.000Z,78.50
2018-11-07T02:15:09.123Z,78.50
2018-11-07T02:17:12.627Z,78.60
2018-11-07T02:19:16.196Z,78.30
2018-11-07T02:21:19.756Z,78.10
2018-11-07T02:23:23.276Z,77.80
2018-11-07T02:25:27.155Z,77.80
2018-11-07T02:27:30.852Z,77.50
2018-11-07T02:29:34.377Z,77.60
2018-11-07T02:31:37.957Z,77.50
2018-11-07T02:33:41.606Z,77.50
2018-11-07T02:35:45.156Z,77.70
2018-11-07T02:37:48.711Z,77.10
2018-11-07T02:39:52.538Z,77.30
2018-11-07T02:41:56.150Z,77.10
2018-11-07T02:43:59.672Z,77.70
2018-11-07T02:46:03.222Z,77.80
2018-11-07T02:48:06.795Z,78.90
2018-11-07T02:50:11.394Z,79.70
2018-11-07T02:52:14.967Z,79.30
2018-11-07T02:54:18.527Z,78.40
2018-11-07T02:56:22.125Z,77.80
2018-11-07T02:58:25.684Z,77.60
2018-11-07T03:00:29.220Z,77.40
2018-11-07T03:02:32.976Z,77.50
2018-11-07T03:04:36.455Z,77.20
2018-11-07T03:06:40.012Z,77.20
2018-11-07T03:08:43.527Z,77.20
2018-11-07T03:10:47.118Z,77.00
2018-11-07T03:12:50.767Z,77.00
2018-11-07T03:14:54.499Z,77.10
2018-11-07T03:16:58.076Z,77.30
2018-11-07T03:19:01.551Z,77.10
2018-11-07T03:21:05.353Z,77.30
2018-11-07T03:23:09.106Z,77.00
2018-11-07T03:25:12.617Z,77.60
2018-11-07T03:27:16.134Z,77.20
2018-11-07T03:29:19.660Z,77.30
2018-11-07T03:31:23.172Z,77.60
2018-11-07T03:33:26.713Z,77.60
2018-11-07T03:35:30.336Z,77.60
2018-11-07T03:37:33.865Z,77.70
2018-11-07T03:39:37.417Z,78.00
2018-11-07T03:41:47.278Z,77.90
2018-11-07T03:43:50.786Z,77.90
2018-11-07T03:46:00.416Z,78.10
2018-11-07T03:48:03.958Z,78.00
2018-11-07T03:50:07.709Z,78.10
2018-11-07T03:52:11.288Z,77.90
2018-11-07T03:54:14.765Z,77.80
2018-11-07T03:56:18.375Z,77.60
2018-11-07T03:58:21.904Z,77.60
2018-11-07T04:00:25.425Z,77.80
2018-11-07T04:02:28.988Z,77.80
2018-11-07T04:04:32.640Z,77.30
2018-11-07T04:06:36.182Z,77.00
2018-11-07T04:08:39.757Z,77.30
2018-11-07T04:10:43.437Z,77.30
2018-11-07T04:12:46.932Z,77.20
2018-11-07T04:14:50.461Z,77.20
2018-11-07T04:16:54.050Z,78.20
2018-11-07T04:18:57.598Z,78.80
2018-11-07T04:21:01.204Z,78.40
2018-11-07T04:23:05.133Z,77.80
2018-11-07T04:25:09.284Z,77.50
2018-11-07T04:27:13.000Z,77.10
2018-11-07T04:29:16.536Z,76.40
2018-11-07T04:31:20.062Z,77.10
2018-11-07T04:33:23.515Z,76.80
2018-11-07T04:35:27.236Z,76.60
2018-11-07T04:37:30.798Z,76.70
2018-11-07T04:39:34.285Z,76.60
2018-11-07T04:41:38.013Z,76.60
2018-11-07T04:43:41.616Z,76.90
2018-11-07T04:45:45.456Z,77.00
2018-11-07T04:47:55.595Z,77.00
2018-11-07T04:49:59.111Z,76.90
2018-11-07T04:52:02.685Z,76.90
2018-11-07T04:54:06.351Z,76.90
2018-11-07T04:56:09.911Z,77.10
2018-11-07T04:58:13.405Z,76.70
2018-11-07T05:00:16.970Z,76.40
2018-11-07T05:02:20.635Z,76.50
2018-11-07T05:04:24.151Z,76.50
2018-11-07T05:06:27.691Z,76.60
2018-11-07T05:08:31.241Z,76.70
2018-11-07T05:10:34.723Z,77.00
2018-11-07T05:12:38.675Z,76.70
2018-11-07T05:14:42.169Z,76.90
2018-11-07T05:16:45.835Z,77.30
2018-11-07T05:18:49.419Z,77.60
2018-11-07T05:20:52.931Z,77.20
2018-11-07T05:22:56.490Z,76.80
2018-11-07T05:25:00.249Z,76.90
2018-11-07T05:27:03.771Z,77.60
2018-11-07T05:29:07.425Z,77.90
2018-11-07T05:31:11.048Z,77.90
2018-11-07T05:33:14.772Z,77.80
2018-11-07T05:35:18.336Z,78.60
2018-11-07T05:37:22.005Z,79.10
2018-11-07T05:39:25.661Z,79.50
2018-11-07T05:41:29.345Z,79.40
2018-11-07T05:43:32.901Z,80.60
2018-11-07T05:45:36.416Z,80.40
2018-11-07T05:47:40.274Z,79.70
2018-11-07T05:49:43.784Z,79.00
2018-11-07T05:51:47.420Z,78.50
2018-11-07T05:53:50.920Z,77.90
2018-11-07T05:55:54.699Z,77.50
2018-11-07T05:57:58.235Z,77.10
2018-11-07T06:00:01.862Z,77.20
2018-11-07T06:02:05.408Z,78.00
2018-11-07T06:04:09.306Z,77.80
2018-11-07T06:06:12.819Z,77.90
2018-11-07T06:08:16.517Z,78.80
2018-11-07T06:10:20.264Z,78.80
2018-11-07T06:12:23.860Z,78.20
2018-11-07T06:14:27.663Z,78.10
2018-11-07T06:16:31.272Z,77.80
2018-11-07T06:18:34.872Z,77.70
2018-11-07T06:20:49.405Z,77.20
2018-11-07T06:22:52.944Z,77.00
2018-11-07T06:24:56.497Z,77.20
2018-11-07T06:27:00.159Z,77.40
2018-11-07T06:29:03.759Z,77.30
2018-11-07T06:31:07.270Z,77.50
2018-11-07T06:33:10.804Z,78.50
2018-11-07T06:35:14.298Z,79.80
2018-11-07T06:37:17.920Z,79.10
2018-11-07T06:39:21.526Z,78.60
2018-11-07T06:41:25.084Z,78.50
2018-11-07T06:43:28.732Z,79.30
2018-11-07T06:45:32.525Z,80.00
2018-11-07T06:47:36.053Z,81.10
2018-11-07T06:49:39.670Z,80.40
2018-11-07T06:51:43.384Z,79.70
2018-11-07T06:53:46.868Z,79.50
2018-11-07T06:55:50.485Z,79.00
2018-11-07T06:57:53.908Z,78.10
2018-11-07T06:59:57.484Z,77.80
2018-11-07T07:02:01.057Z,77.30
2018-11-07T07:04:05.045Z,77.70
2018-11-07T07:06:08.692Z,78.10
2018-11-07T07:08:12.235Z,78.80
2018-11-07T07:10:17.220Z,79.20
2018-11-07T07:12:20.783Z,79.00
2018-11-07T07:14:24.493Z,79.90
2018-11-07T07:16:28.101Z,80.00
2018-11-07T07:18:31.696Z,80.80
2018-11-07T07:20:35.339Z,80.80
2018-11-07T07:22:39.187Z,80.60
2018-11-07T07:24:42.716Z,80.40
2018-11-07T07:26:46.332Z,80.40
2018-11-07T07:28:49.984Z,80.60
2018-11-07T07:30:53.500Z,80.80
2018-11-07T07:32:57.272Z,80.50
2018-11-07T07:35:00.983Z,80.40
2018-11-07T07:37:04.589Z,80.70
2018-11-07T07:39:09.285Z,80.50
2018-11-07T07:41:12.800Z,80.70
2018-11-07T07:43:16.342Z,80.30
2018-11-07T07:45:20.516Z,80.40
2018-11-07T07:47:24.100Z,80.10
2018-11-07T07:49:27.672Z,80.10
2018-11-07T07:51:31.150Z,80.00
2018-11-07T07:53:34.683Z,79.90
2018-11-07T07:55:38.181Z,79.80
2018-11-07T07:57:42.390Z,79.80
2018-11-07T07:59:46.177Z,80.70
2018-11-07T08:01:49.847Z,80.10
2018-11-07T08:03:53.349Z,80.40
2018-11-07T08:05:56.896Z,80.20
2018-11-07T08:08:00.419Z,80.10
2018-11-07T08:10:04.921Z,80.10
2018-11-07T08:12:08.464Z,79.90
2018-11-07T08:14:12.063Z,81.90
2018-11-07T08:16:15.792Z,81.60
2018-11-07T08:18:19.352Z,81.60
2018-11-07T08:20:22.924Z,81.70
2018-11-07T08:22:26.559Z,81.10
2018-11-07T08:24:30.067Z,81.00
2018-11-07T08:26:33.992Z,81.20
2018-11-07T08:28:37.480Z,80.90
2018-11-07T08:30:41.211Z,80.60
2018-11-07T08:32:44.705Z,80.30
2018-11-07T08:34:48.214Z,80.20
2018-11-07T08:36:51.888Z,80.10
2018-11-07T08:38:55.483Z,80.30
2018-11-07T08:40:59.017Z,80.60
2018-11-07T08:43:02.545Z,80.80
2018-11-07T08:45:06.892Z,81.30
2018-11-07T08:47:10.576Z,81.80
2018-11-07T08:49:14.081Z,83.70
2018-11-07T08:51:17.621Z,82.90
2018-11-07T08:53:21.352Z,82.20
2018-11-07T08:55:24.950Z,81.40
2018-11-07T08:57:28.597Z,81.30
2018-11-07T08:59:32.181Z,81.70
2018-11-07T09:03:39.550Z,81.40
2018-11-07T09:05:43.174Z,81.60
2018-11-07T09:07:47.207Z,81.60
2018-11-07T09:09:51.053Z,82.20
2018-11-07T09:11:54.741Z,82.40
2018-11-07T09:13:58.290Z,82.30
2018-11-07T09:16:01.752Z,81.90
2018-11-07T09:18:05.455Z,81.50
2018-11-07T09:20:10.920Z,81.20
2018-11-07T09:22:14.436Z,80.90
2018-11-07T09:24:17.955Z,80.70
2018-11-07T09:26:21.712Z,81.70
2018-11-07T09:28:25.244Z,81.90
2018-11-07T09:30:28.764Z,81.80
2018-11-07T09:32:32.451Z,81.50
2018-11-07T09:34:36.104Z,82.30
2018-11-07T09:36:39.804Z,82.10
2018-11-07T09:38:43.300Z,81.90
2018-11-07T09:40:46.915Z,81.90
2018-11-07T09:42:51.099Z,81.80
2018-11-07T09:44:54.848Z,81.60
2018-11-07T09:46:58.473Z,81.60
2018-11-07T09:49:02.036Z,81.40
2018-11-07T09:51:05.860Z,81.30
2018-11-07T09:53:09.515Z,81.20
2018-11-07T09:55:14.568Z,81.00
2018-11-07T09:57:18.118Z,80.90
2018-11-07T09:59:21.697Z,81.00
2018-11-07T10:01:25.440Z,81.00
2018-11-07T10:03:29.147Z,80.80
2018-11-07T10:05:32.759Z,81.70
2018-11-07T10:07:36.445Z,81.40
2018-11-07T10:09:39.952Z,82.10
2018-11-07T10:11:43.465Z,82.80
2018-11-07T10:13:47.064Z,82.50
2018-11-07T10:15:50.623Z,82.80
2018-11-07T10:17:54.203Z,84.10
2018-11-07T10:19:57.752Z,84.80
2018-11-07T10:22:01.288Z,83.80
2018-11-07T10:24:04.928Z,83.50
2018-11-07T10:26:08.458Z,82.90
2018-11-07T10:28:12.160Z,82.20
2018-11-07T10:30:17.094Z,82.10
2018-11-07T10:32:20.496Z,81.90
2018-11-07T10:34:24.117Z,81.50
2018-11-07T10:36:27.606Z,81.20
2018-11-07T10:38:31.360Z,80.90
2018-11-07T10:40:34.823Z,81.10
2018-11-07T10:42:38.333Z,81.10
2018-11-07T10:44:42.003Z,81.10
2018-11-07T10:46:45.584Z,81.70
2018-11-07T10:48:49.093Z,81.80
2018-11-07T10:50:52.717Z,81.80
2018-11-07T10:52:56.221Z,81.80
2018-11-07T10:54:59.760Z,83.50
2018-11-07T10:57:03.345Z,82.10
2018-11-07T10:59:06.866Z,81.70
2018-11-07T11:01:15.716Z,81.00
2018-11-07T11:03:24.588Z,80.80
2018-11-07T11:05:30.242Z,80.90
2018-11-07T11:07:33.944Z,81.20
2018-11-07T11:09:37.468Z,80.90
2018-11-07T11:11:40.987Z,80.60
2018-11-07T11:13:44.709Z,81.50
2018-11-07T11:15:48.249Z,81.00
2018-11-07T11:17:53.282Z,81.20
2018-11-07T11:19:56.816Z,81.00
2018-11-07T11:22:00.499Z,81.60
2018-11-07T11:24:04.055Z,80.70
2018-11-07T11:26:07.553Z,80.40
2018-11-07T11:28:11.037Z,80.80
2018-11-07T11:30:14.539Z,80.00
2018-11-07T11:32:18.123Z,80.00
2018-11-07T11:34:21.804Z,79.50
2018-11-07T11:36:25.257Z,79.80
2018-11-07T11:38:29.687Z,80.60
2018-11-07T11:40:33.309Z,80.80
2018-11-07T11:42:36.842Z,80.60
2018-11-07T11:44:40.511Z,80.20
2018-11-07T11:46:44.391Z,81.10
2018-11-07T11:48:48.160Z,80.60
2018-11-07T11:50:51.749Z,80.70
2018-11-07T11:52:55.261Z,80.70
2018-11-07T11:54:58.792Z,80.70
2018-11-07T11:57:02.361Z,80.10
2018-11-07T11:59:06.339Z,80.60
2018-11-07T12:01:09.788Z,80.80
2018-11-07T12:03:13.485Z,80.70
2018-11-07T12:05:17.964Z,80.70
2018-11-07T12:07:21.506Z,80.80
2018-11-07T12:09:25.030Z,80.70
2018-11-07T12:11:28.676Z,80.60
2018-11-07T12:13:32.265Z,80.50
2018-11-07T12:15:35.925Z,80.40
2018-11-07T12:17:39.681Z,80.50
2018-11-07T12:19:43.174Z,80.20
2018-11-07T12:21:46.804Z,81.40
2018-11-07T12:23:50.546Z,80.90
2018-11-07T12:25:54.105Z,80.70
2018-11-07T12:27:57.744Z,81.40
2018-11-07T12:30:01.373Z,81.40
2018-11-07T12:32:05.013Z,81.10
2018-11-07T12:34:08.631Z,81.00
2018-11-07T12:36:12.350Z,80.90
2018-11-07T12:38:15.972Z,81.50
2018-11-07T12:40:20.045Z,82.90
2018-11-07T12:42:23.555Z,82.10
2018-11-07T12:44:27.144Z,82.30
2018-11-07T12:46:30.754Z,82.20
2018-11-07T12:48:34.296Z,81.50
2018-11-07T12:50:37.842Z,82.20
2018-11-07T12:52:41.993Z,82.00
2018-11-07T12:54:45.481Z,82.10
2018-11-07T12:56:49.011Z,81.60
2018-11-07T12:58:52.696Z,81.70
2018-11-07T13:00:56.309Z,81.50
2018-11-07T13:02:59.903Z,81.30
2018-11-07T13:05:03.523Z,81.10
2018-11-07T13:07:07.150Z,81.70
2018-11-07T13:09:11.869Z,81.20
2018-11-07T13:11:15.474Z,81.90
2018-11-07T13:13:19.076Z,82.80
2018-11-07T13:15:22.997Z,82.80
2018-11-07T13:17:26.535Z,82.30
2018-11-07T13:19:30.147Z,81.30
2018-11-07T13:21:33.675Z,81.30
2018-11-07T13:23:37.202Z,80.90
2018-11-07T13:25:40.928Z,81.10
2018-11-07T13:27:44.521Z,81.50
2018-11-07T13:29:48.119Z,81.60
2018-11-07T13:31:51.743Z,81.90
2018-11-07T13:33:55.457Z,82.50
2018-11-07T13:35:59.149Z,82.30
2018-11-07T13:38:03.029Z,81.70
2018-11-07T13:40:09.323Z,82.30
2018-11-07T13:42:13.142Z,82.90
2018-11-07T13:44:16.760Z,82.90
2018-11-07T13:46:20.320Z,83.20
2018-11-07T13:48:23.827Z,83.80
2018-11-07T13:50:27.352Z,83.60
2018-11-07T13:52:30.881Z,83.50
2018-11-07T13:54:34.392Z,83.70
2018-11-07T13:56:38.123Z,83.40
2018-11-07T13:58:41.639Z,82.60
2018-11-07T14:00:45.172Z,82.90
2018-11-07T14:02:49.603Z,82.50
2018-11-07T14:04:53.168Z,82.10
2018-11-07T14:06:56.698Z,83.10
2018-11-07T14:09:00.251Z,82.90
2018-11-07T14:11:03.817Z,82.30
2018-11-07T14:13:07.389Z,82.10
2018-11-07T14:15:12.593Z,82.60
2018-11-07T14:17:16.180Z,82.30
2018-11-07T14:19:19.730Z,82.50
2018-11-07T14:21:23.262Z,83.00
2018-11-07T14:23:26.904Z,82.60
2018-11-07T14:25:30.467Z,82.90
2018-11-07T14:27:34.284Z,83.10
2018-11-07T14:29:37.792Z,83.80
2018-11-07T14:31:41.445Z,83.50
2018-11-07T14:33:44.998Z,82.90
2018-11-07T14:35:48.759Z,82.40
2018-11-07T14:37:53.014Z,82.00
2018-11-07T14:39:56.635Z,81.90
2018-11-07T14:42:00.380Z,83.00
2018-11-07T14:44:04.010Z,83.10
2018-11-07T14:46:07.620Z,82.60
2018-11-07T14:48:11.242Z,82.10
2018-11-07T14:50:15.004Z,81.80
2018-11-07T14:52:18.636Z,81.60
2018-11-07T14:54:22.202Z,81.60
2018-11-07T14:56:25.823Z,82.10
2018-11-07T14:58:29.348Z,81.80
2018-11-07T15:00:32.893Z,81.50
2018-11-07T15:02:36.584Z,81.50
2018-11-07T15:04:40.041Z,81.40
2018-11-07T15:06:43.594Z,81.30
2018-11-07T15:08:47.167Z,81.50
2018-11-07T15:10:50.752Z,81.30
2018-11-07T15:12:54.528Z,81.80
2018-11-07T15:14:58.099Z,81.40
2018-11-07T15:17:01.868Z,81.60
2018-11-07T15:19:06.486Z,81.30
2018-11-07T15:21:10.320Z,81.50
2018-11-07T15:23:15.126Z,81.70
2018-11-07T15:25:18.879Z,81.80
2018-11-07T15:27:22.791Z,81.70
2018-11-07T15:29:27.608Z,81.60
2018-11-07T15:31:33.434Z,81.70
2018-11-07T15:33:37.524Z,82.30
2018-11-07T15:35:41.337Z,81.60
2018-11-07T15:37:45.096Z,81.50
2018-11-07T15:39:48.638Z,81.60
2018-11-07T15:41:52.150Z,81.60
2018-11-07T15:43:55.677Z,81.70
2018-11-07T15:45:59.193Z,82.40
2018-11-07T15:48:02.866Z,82.20
2018-11-07T15:50:11.983Z,82.10
2018-11-07T15:52:15.604Z,82.30
2018-11-07T15:54:19.159Z,82.20
2018-11-07T15:56:22.679Z,82.30
2018-11-07T15:58:26.221Z,81.90
2018-11-07T16:00:29.701Z,81.80
2018-11-07T16:02:33.261Z,81.90
2018-11-07T16:04:36.912Z,81.90
2018-11-07T16:06:40.640Z,81.90
2018-11-07T16:08:44.195Z,82.00
2018-11-07T16:10:47.758Z,82.10
2018-11-07T16:12:51.415Z,81.80
2018-11-07T16:14:54.901Z,81.90
2018-11-07T16:16:58.452Z,82.10
2018-11-07T16:19:02.223Z,82.80
2018-11-07T16:21:05.779Z,83.20
2018-11-07T16:23:09.338Z,82.70
2018-11-07T16:25:12.998Z,82.70
2018-11-07T16:27:16.532Z,82.30
2018-11-07T16:29:20.193Z,82.20
2018-11-07T16:31:23.756Z,82.00
2018-11-07T16:33:27.556Z,81.70
2018-11-07T16:35:31.315Z,81.80
2018-11-07T16:37:34.994Z,81.50
2018-11-07T16:39:38.584Z,81.70
2018-11-07T16:41:42.240Z,81.80
2018-11-07T16:43:45.712Z,82.00
2018-11-07T16:45:49.288Z,81.60
2018-11-07T16:47:52.900Z,81.60
2018-11-07T16:49:56.520Z,81.90
2018-11-07T16:52:00.155Z,82.10
2018-11-07T16:54:04.149Z,81.90
2018-11-07T16:56:07.812Z,82.10
2018-11-07T16:58:11.434Z,82.00
2018-11-07T17:00:16.548Z,82.00
2018-11-07T17:02:20.193Z,81.90
2018-11-07T17:04:23.747Z,81.90
2018-11-07T17:06:27.415Z,81.80
2018-11-07T17:08:30.969Z,81.80
2018-11-07T17:10:34.691Z,81.80
2018-11-07T17:12:38.293Z,81.10
2018-11-07T17:14:41.819Z,81.00
2018-11-07T17:16:45.334Z,81.10
2018-11-07T17:18:49.014Z,81.70
2018-11-07T17:20:52.622Z,82.20
2018-11-07T17:22:56.067Z,82.40
2018-11-07T17:24:59.775Z,82.20
2018-11-07T17:27:03.340Z,81.90
2018-11-07T17:29:06.962Z,81.90
2018-11-07T17:31:10.569Z,82.70
2018-11-07T17:33:14.111Z,83.20
2018-11-07T17:35:18.676Z,83.60
2018-11-07T17:37:22.244Z,83.50
2018-11-07T17:39:25.787Z,82.60
2018-11-07T17:41:29.293Z,82.50
2018-11-07T17:43:33.006Z,82.60
2018-11-07T17:45:36.591Z,82.70
2018-11-07T17:47:40.748Z,82.70
2018-11-07T17:49:44.360Z,82.30
2018-11-07T17:51:47.945Z,82.40
2018-11-07T17:53:51.450Z,81.90
2018-11-07T17:55:55.144Z,82.10
2018-11-07T17:57:58.722Z,81.80
2018-11-07T18:00:02.349Z,81.60
2018-11-07T18:02:06.448Z,81.90
2018-11-07T18:04:09.996Z,81.70
2018-11-07T18:06:13.572Z,81.80
2018-11-07T18:08:17.159Z,81.70
2018-11-07T18:10:20.855Z,81.70
2018-11-07T18:12:24.424Z,81.70
2018-11-07T18:14:28.012Z,81.80
2018-11-07T18:16:31.610Z,81.70
2018-11-07T18:18:35.212Z,81.60
2018-11-07T18:20:38.860Z,81.80
2018-11-07T18:22:42.475Z,81.80
2018-11-07T18:24:46.292Z,81.80
2018-11-07T18:26:49.926Z,81.30
2018-11-07T18:28:53.601Z,81.10
2018-11-07T18:30:57.233Z,81.20
2018-11-07T18:33:00.852Z,82.50
2018-11-07T18:35:04.972Z,82.90
2018-11-07T18:37:08.931Z,82.70
2018-11-07T18:39:13.179Z,82.30
2018-11-07T18:41:16.899Z,82.80
2018-11-07T18:43:20.487Z,81.90
2018-11-07T18:45:24.112Z,81.60
2018-11-07T18:47:27.728Z,81.70
2018-11-07T18:49:31.309Z,81.60
2018-11-07T18:51:34.866Z,81.10
2018-11-07T18:53:38.450Z,81.60
2018-11-07T18:55:42.030Z,81.60
2018-11-07T18:57:46.244Z,80.90
2018-11-07T18:59:49.842Z,80.90
2018-11-07T19:01:53.392Z,81.20
2018-11-07T19:03:57.068Z,80.90
2018-11-07T19:06:00.820Z,80.90
2018-11-07T19:08:04.344Z,80.80
2018-11-07T19:10:11.528Z,80.60
2018-11-07T19:12:15.163Z,80.50
2018-11-07T19:14:18.751Z,80.40
2018-11-07T19:16:22.355Z,80.40
2018-11-07T19:18:25.933Z,80.40
2018-11-07T19:20:29.527Z,80.10
2018-11-07T19:22:33.066Z,80.20
2018-11-07T19:24:36.616Z,80.00
2018-11-07T19:26:40.357Z,80.30
2018-11-07T19:28:43.888Z,81.00
2018-11-07T19:30:47.528Z,80.10
2018-11-07T19:32:52.239Z,80.30
2018-11-07T19:34:55.822Z,80.20
2018-11-07T19:36:59.636Z,80.10
2018-11-07T19:39:05.504Z,80.60
2018-11-07T19:41:09.287Z,80.60
2018-11-07T19:43:12.899Z,80.90
2018-11-07T19:45:17.842Z,80.90
2018-11-07T19:47:21.424Z,80.40
2018-11-07T19:49:25.039Z,80.40
2018-11-07T19:51:28.950Z,80.70
2018-11-07T19:53:32.476Z,80.60
2018-11-07T19:55:42.575Z,80.40
2018-11-07T19:57:51.785Z,80.10
2018-11-07T19:59:55.380Z,80.20
2018-11-07T20:01:59.041Z,80.20
2018-11-07T20:04:04.147Z,80.10
2018-11-07T20:06:07.712Z,80.30
2018-11-07T20:08:11.284Z,80.80
2018-11-07T20:10:16.350Z,80.60
2018-11-07T20:12:19.907Z,80.70
2018-11-07T20:14:23.409Z,80.50
2018-11-07T20:16:27.060Z,80.50
2018-11-07T20:18:30.571Z,80.40
2018-11-07T20:20:34.220Z,80.30
2018-11-07T20:22:37.816Z,80.40
2018-11-07T20:24:41.393Z,80.20
2018-11-07T20:26:44.989Z,80.30
2018-11-07T20:28:48.610Z,80.10
2018-11-07T20:30:52.361Z,80.70
2018-11-07T20:32:55.943Z,81.00
2018-11-07T20:34:59.539Z,81.80
2018-11-07T20:37:03.205Z,82.10
2018-11-07T20:39:09.785Z,81.70
2018-11-07T20:41:13.304Z,81.10
2018-11-07T20:43:16.945Z,81.00
2018-11-07T20:45:20.686Z,80.60
2018-11-07T20:47:24.413Z,80.50
2018-11-07T20:49:28.033Z,80.40
2018-11-07T20:51:31.636Z,81.00
2018-11-07T20:53:36.252Z,81.10
2018-11-07T20:55:39.892Z,81.20
2018-11-07T20:57:43.670Z,81.20
2018-11-07T20:59:47.205Z,81.10
2018-11-07T21:01:50.802Z,80.80
2018-11-07T21:03:54.520Z,80.70
2018-11-07T21:05:58.095Z,80.40
2018-11-07T21:08:01.735Z,80.30
2018-11-07T21:10:07.030Z,80.10
2018-11-07T21:12:10.622Z,80.40
2018-11-07T21:14:14.219Z,80.90
2018-11-07T21:16:17.786Z,81.00
2018-11-07T21:18:24.293Z,80.90
2018-11-07T21:20:27.902Z,80.40
2018-11-07T21:22:31.623Z,80.30
2018-11-07T21:24:35.193Z,80.40
2018-11-07T21:26:38.862Z,80.40
2018-11-07T21:28:42.537Z,80.20
2018-11-07T21:30:46.264Z,80.50
2018-11-07T21:32:49.820Z,81.10
2018-11-07T21:34:53.517Z,81.40
2018-11-07T21:36:57.052Z,81.60
2018-11-07T21:39:00.575Z,82.70
2018-11-07T21:41:04.210Z,83.20
2018-11-07T21:43:08.070Z,83.20
2018-11-07T21:45:13.036Z,82.70
2018-11-07T21:47:16.647Z,82.40
2018-11-07T21:49:20.252Z,82.10
2018-11-07T21:51:23.758Z,81.50
2018-11-07T21:53:27.417Z,81.40
2018-11-07T21:55:30.981Z,81.30
2018-11-07T21:57:34.756Z,81.50
2018-11-07T21:59:38.368Z,81.70
2018-11-07T22:01:42.086Z,81.70
2018-11-07T22:03:45.716Z,81.90
2018-11-07T22:05:49.259Z,82.20
2018-11-07T22:07:52.781Z,82.30
2018-11-07T22:09:56.478Z,82.30
2018-11-07T22:12:00.116Z,84.30
2018-11-07T22:14:03.696Z,85.30
2018-11-07T22:16:07.436Z,84.90
2018-11-07T22:18:11.016Z,85.60
2018-11-07T22:20:19.244Z,87.10
2018-11-07T22:22:22.765Z,88.80
2018-11-07T22:24:26.302Z,88.90
2018-11-07T22:26:29.950Z,89.70
2018-11-07T22:28:33.721Z,90.00
2018-11-07T22:30:37.280Z,90.30
2018-11-07T22:32:41.361Z,90.90
2018-11-07T22:34:44.967Z,91.10
2018-11-07T22:36:48.604Z,90.40
2018-11-07T22:38:52.205Z,90.90
2018-11-07T22:40:55.717Z,91.40
2018-11-07T22:42:59.274Z,91.20
2018-11-07T22:45:02.849Z,91.10
2018-11-07T22:47:06.396Z,90.50
2018-11-07T22:49:09.981Z,90.60
2018-11-07T22:51:13.514Z,89.90
2018-11-07T22:53:17.121Z,88.30
2018-11-07T22:55:20.633Z,87.30
2018-11-07T22:57:24.189Z,86.60
2018-11-07T22:59:27.888Z,86.30
2018-11-07T23:01:36.777Z,86.40
2018-11-07T23:03:40.594Z,85.90
2018-11-07T23:05:44.117Z,85.10
2018-11-07T23:07:48.111Z,84.70
2018-11-07T23:09:51.792Z,84.60
2018-11-07T23:11:55.331Z,84.40
2018-11-07T23:13:58.889Z,84.60
2018-11-07T23:16:02.733Z,84.40
2018-11-07T23:18:06.432Z,84.20
2018-11-07T23:20:10.218Z,84.10
2018-11-07T23:22:13.745Z,84.70
2018-11-07T23:24:17.282Z,84.60
2018-11-07T23:26:20.832Z,84.30
2018-11-07T23:28:24.384Z,84.30
2018-11-07T23:30:27.914Z,84.30
2018-11-07T23:32:31.536Z,84.10
2018-11-07T23:34:35.243Z,83.90
2018-11-07T23:36:38.752Z,85.30
2018-11-07T23:38:42.280Z,83.50
2018-11-07T23:40:46.134Z,83.50
2018-11-07T23:42:49.743Z,83.40
2018-11-07T23:44:53.338Z,83.30
2018-11-07T23:46:56.981Z,83.20
2018-11-07T23:49:00.676Z,83.00
2018-11-07T23:51:04.295Z,83.00
2018-11-07T23:53:07.837Z,82.90
2018-11-07T23:55:11.476Z,83.00
2018-11-07T23:57:15.159Z,84.20
2018-11-07T23:59:18.884Z,84.30
